createdAt,value
2022-08-04T00:02:10.513Z,22.83
2022-08-04T00:04:49.673Z,22.75
2022-08-04T00:07:44.497Z,22.69
2022-08-04T00:10:16.005Z,22.63
2022-08-04T00:12:47.345Z,22.58
2022-08-04T00:15:17.003Z,22.51
2022-08-04T00:18:07.688Z,22.52
2022-08-04T00:20:39.369Z,22.46
2022-08-04T00:23:07.910Z,22.44
2022-08-04T00:25:40.626Z,22.45
2022-08-04T00:28:07.612Z,22.40
2022-08-04T00:30:34.625Z,22.39
2022-08-04T00:33:02.545Z,22.35
2022-08-04T00:35:29.769Z,22.27
2022-08-04T00:37:57.347Z,22.29
2022-08-04T00:40:59.577Z,22.30
2022-08-04T00:43:34.719Z,22.28
2022-08-04T00:46:20.564Z,22.30
2022-08-04T00:49:24.965Z,22.30
2022-08-04T00:52:31.449Z,22.17
2022-08-04T00:55:18.870Z,22.02
2022-08-04T00:58:05.191Z,22.07
2022-08-04T01:00:44.460Z,22.12
2022-08-04T01:03:18.441Z,22.09
2022-08-04T01:05:48.417Z,22.12
2022-08-04T01:08:15.401Z,22.07
2022-08-04T01:11:19.962Z,22.08
2022-08-04T01:14:19.695Z,22.12
2022-08-04T01:17:03.507Z,22.00
2022-08-04T01:19:46.466Z,21.94
2022-08-04T01:22:31.843Z,21.84
2022-08-04T01:25:32.851Z,21.84
2022-08-04T01:28:30.118Z,21.77
2022-08-04T01:31:07.323Z,21.75
2022-08-04T01:34:03.646Z,21.67
2022-08-04T01:36:35.331Z,21.64
2022-08-04T01:39:24.949Z,21.63
2022-08-04T01:41:58.477Z,21.51
2022-08-04T01:44:31.585Z,21.43
2022-08-04T01:47:01.806Z,21.43
2022-08-04T01:49:40.530Z,21.42
2022-08-04T01:52:09.916Z,21.38
2022-08-04T01:54:41.955Z,21.42
2022-08-04T01:59:59.741Z,21.35
2022-08-04T02:02:27.121Z,21.30
2022-08-04T02:04:54.069Z,21.21
2022-08-04T02:07:32.634Z,21.17
2022-08-04T02:09:59.658Z,21.13
2022-08-04T02:13:03.635Z,21.08
2022-08-04T02:15:33.586Z,21.00
2022-08-04T02:18:04.669Z,20.97
2022-08-04T02:20:38.041Z,20.96
2022-08-04T02:23:09.767Z,20.94
2022-08-04T02:25:56.945Z,20.94
2022-08-04T02:28:46.605Z,20.87
2022-08-04T02:31:31.706Z,20.82
2022-08-04T02:34:08.818Z,20.84
2022-08-04T02:36:41.607Z,20.83
2022-08-04T02:39:11.095Z,20.81
2022-08-04T02:41:42.671Z,20.75
2022-08-04T02:44:10.576Z,20.76
2022-08-04T02:46:39.301Z,20.72
2022-08-04T02:49:09.335Z,20.70
2022-08-04T02:51:40.460Z,20.66
2022-08-04T02:54:08.166Z,20.65
2022-08-04T02:56:37.466Z,20.72
2022-08-04T02:59:07.391Z,20.64
2022-08-04T03:01:35.346Z,20.47
2022-08-04T03:04:24.382Z,20.45
2022-08-04T03:07:15.678Z,20.40
2022-08-04T03:10:10.653Z,20.43
2022-08-04T03:12:59.873Z,20.45
2022-08-04T03:15:26.656Z,20.46
2022-08-04T03:18:42.585Z,20.42
2022-08-04T03:21:18.773Z,20.43
2022-08-04T03:24:04.749Z,20.43
2022-08-04T03:26:37.309Z,20.44
2022-08-04T03:29:36.347Z,20.37
2022-08-04T03:32:12.991Z,20.43
2022-08-04T03:34:52.409Z,20.45
2022-08-04T03:37:39.087Z,20.46
2022-08-04T03:40:24.755Z,20.44
2022-08-04T03:43:03.741Z,20.46
2022-08-04T03:45:52.723Z,20.54
2022-08-04T03:48:51.750Z,20.60
2022-08-04T03:51:58.599Z,20.63
2022-08-04T03:54:47.024Z,20.62
2022-08-04T03:57:40.479Z,20.54
2022-08-04T04:00:09.231Z,20.61
2022-08-04T04:02:47.976Z,20.60
2022-08-04T04:06:00.226Z,20.59
2022-08-04T04:08:49.899Z,20.64
2022-08-04T04:11:35.265Z,20.70
2022-08-04T04:14:37.553Z,20.81
2022-08-04T04:17:45.693Z,20.93
2022-08-04T04:20:30.040Z,20.99
2022-08-04T04:23:42.059Z,21.08
2022-08-04T04:26:32.345Z,21.14
2022-08-04T04:29:26.858Z,21.23
2022-08-04T04:32:17.509Z,21.25
2022-08-04T04:35:15.786Z,21.33
2022-08-04T04:38:09.215Z,21.43
2022-08-04T04:40:45.418Z,21.60
2022-08-04T04:43:50.456Z,21.67
2022-08-04T04:46:46.993Z,21.72
2022-08-04T04:49:33.143Z,21.83
2022-08-04T04:52:09.002Z,21.88
2022-08-04T04:55:04.668Z,21.90
2022-08-04T04:57:53.328Z,22.00
2022-08-04T05:00:26.632Z,22.11
2022-08-04T05:03:23.370Z,22.21
2022-08-04T05:06:09.478Z,22.32
2022-08-04T05:08:59.844Z,22.57
2022-08-04T05:11:45.251Z,22.67
2022-08-04T05:14:41.148Z,22.89
2022-08-04T05:17:27.994Z,22.97
2022-08-04T05:20:07.445Z,23.09
2022-08-04T05:23:07.504Z,23.24
2022-08-04T05:25:50.127Z,23.30
2022-08-04T05:28:43.318Z,23.39
2022-08-04T05:31:20.091Z,23.54
2022-08-04T05:34:06.116Z,23.59
2022-08-04T05:36:57.734Z,23.76
2022-08-04T05:39:33.777Z,23.88
2022-08-04T05:42:04.356Z,23.98
2022-08-04T05:44:34.230Z,24.09
2022-08-04T05:47:02.769Z,24.21
2022-08-04T05:49:31.155Z,24.35
2022-08-04T05:52:03.908Z,24.54
2022-08-04T05:54:33.305Z,25.99
2022-08-04T05:57:02.973Z,30.28
2022-08-04T05:59:31.570Z,33.28
2022-08-04T06:02:01.531Z,35.31
2022-08-04T06:04:32.620Z,36.83
2022-08-04T06:06:59.760Z,37.38
2022-08-04T06:09:26.935Z,37.98
2022-08-04T06:12:03.859Z,38.68
2022-08-04T06:14:38.225Z,39.17
2022-08-04T06:18:32.397Z,39.88
2022-08-04T06:20:19.985Z,39.85
2022-08-04T06:22:47.220Z,40.78
2022-08-04T06:25:20.553Z,40.69
2022-08-04T06:27:49.252Z,40.80
2022-08-04T06:30:19.122Z,41.04
2022-08-04T06:32:49.925Z,41.24
2022-08-04T06:35:18.302Z,41.01
2022-08-04T06:37:47.741Z,41.07
2022-08-04T06:40:30.821Z,40.89
2022-08-04T06:43:04.793Z,40.27
2022-08-04T06:45:34.947Z,39.75
2022-08-04T06:48:05.113Z,39.02
2022-08-04T06:51:27.840Z,39.26
2022-08-04T06:53:23.246Z,39.66
2022-08-04T06:55:51.874Z,39.95
2022-08-04T06:58:21.077Z,40.07
2022-08-04T07:00:49.580Z,40.05
2022-08-04T07:03:18.833Z,40.14
2022-08-04T07:05:51.311Z,40.34
2022-08-04T07:08:19.947Z,40.30
2022-08-04T07:10:47.484Z,39.97
2022-08-04T07:13:16.015Z,39.97
2022-08-04T07:15:45.824Z,40.56
2022-08-04T07:18:13.086Z,40.82
2022-08-04T07:20:45.516Z,40.50
2022-08-04T07:23:17.786Z,40.65
2022-08-04T07:25:59.671Z,40.68
2022-08-04T07:28:39.461Z,40.27
2022-08-04T07:31:09.998Z,40.48
2022-08-04T07:33:38.308Z,40.43
2022-08-04T07:36:11.500Z,40.37
2022-08-04T07:38:50.804Z,40.18
2022-08-04T07:41:40.319Z,39.91
2022-08-04T07:44:08.822Z,40.12
2022-08-04T07:46:37.267Z,40.24
2022-08-04T07:49:05.553Z,39.89
2022-08-04T07:51:35.262Z,39.92
2022-08-04T07:54:05.036Z,40.02
2022-08-04T07:56:34.038Z,39.12
2022-08-04T07:59:02.022Z,39.25
2022-08-04T08:01:30.021Z,38.89
2022-08-04T08:03:59.856Z,38.89
2022-08-04T08:06:33.289Z,38.85
2022-08-04T08:09:14.525Z,38.78
2022-08-04T08:12:37.069Z,38.69
2022-08-04T08:14:32.059Z,39.13
2022-08-04T08:17:03.364Z,39.10
2022-08-04T08:19:31.799Z,38.86
2022-08-04T08:22:00.812Z,38.41
2022-08-04T08:24:35.596Z,38.27
2022-08-04T08:27:04.790Z,38.63
2022-08-04T08:29:35.107Z,38.36
2022-08-04T08:32:09.095Z,38.41
2022-08-04T08:34:38.600Z,38.46
2022-08-04T08:37:41.832Z,38.67
2022-08-04T08:40:39.941Z,38.37
2022-08-04T08:44:04.701Z,38.31
2022-08-04T08:46:53.723Z,38.45
2022-08-04T08:50:02.493Z,38.34
2022-08-04T08:52:57.516Z,38.18
2022-08-04T08:55:24.938Z,37.87
2022-08-04T08:58:17.048Z,37.97
2022-08-04T09:00:49.975Z,37.41
2022-08-04T09:04:02.390Z,37.81
2022-08-04T09:07:04.888Z,37.52
2022-08-04T09:10:02.793Z,37.72
2022-08-04T09:12:32.462Z,37.61
2022-08-04T09:15:05.894Z,37.56
2022-08-04T09:17:43.120Z,37.67
2022-08-04T09:20:22.191Z,37.59
2022-08-04T09:23:07.582Z,37.53
2022-08-04T09:25:41.281Z,37.52
2022-08-04T09:28:52.073Z,37.58
2022-08-04T09:31:48.959Z,37.44
2022-08-04T09:34:43.805Z,37.33
2022-08-04T09:37:45.701Z,37.17
2022-08-04T09:40:53.794Z,37.39
2022-08-04T09:44:42.718Z,36.53
2022-08-04T09:46:26.385Z,36.61
2022-08-04T09:49:03.225Z,36.89
2022-08-04T09:51:58.064Z,37.16
2022-08-04T09:54:53.998Z,37.10
2022-08-04T09:57:31.414Z,37.02
2022-08-04T10:00:40.576Z,37.05
2022-08-04T10:03:15.984Z,37.19
2022-08-04T10:06:18.180Z,37.21
2022-08-04T10:09:00.912Z,37.18
2022-08-04T10:11:54.762Z,37.25
2022-08-04T10:14:52.809Z,37.22
2022-08-04T10:17:52.216Z,36.82
2022-08-04T10:20:46.033Z,36.62
2022-08-04T10:23:32.017Z,36.49
2022-08-04T10:26:34.990Z,36.35
2022-08-04T10:29:12.738Z,35.95
2022-08-04T10:31:46.487Z,35.83
2022-08-04T10:34:20.235Z,35.57
2022-08-04T10:37:04.436Z,35.48
2022-08-04T10:40:21.042Z,35.25
2022-08-04T10:43:00.468Z,35.13
2022-08-04T10:45:36.354Z,35.17
2022-08-04T10:48:14.017Z,35.24
2022-08-04T10:50:49.108Z,35.11
2022-08-04T10:53:22.590Z,35.11
2022-08-04T10:56:06.298Z,35.00
2022-08-04T10:58:49.797Z,35.10
2022-08-04T11:02:00.794Z,34.91
2022-08-04T11:04:29.427Z,35.05
2022-08-04T11:06:59.445Z,34.91
2022-08-04T11:09:28.193Z,35.16
2022-08-04T11:12:02.378Z,35.17
2022-08-04T11:14:37.600Z,35.13
2022-08-04T11:17:11.199Z,35.30
2022-08-04T11:20:18.552Z,35.16
2022-08-04T11:23:13.094Z,35.01
2022-08-04T11:25:47.243Z,35.10
2022-08-04T11:29:03.303Z,34.94
2022-08-04T11:31:33.650Z,34.68
2022-08-04T11:34:10.460Z,34.43
2022-08-04T11:36:53.457Z,34.41
2022-08-04T11:39:34.192Z,34.61
2022-08-04T11:42:21.056Z,34.42
2022-08-04T11:44:51.284Z,34.49
2022-08-04T11:47:32.939Z,34.67
2022-08-04T11:50:09.753Z,34.56
2022-08-04T11:52:42.904Z,34.64
2022-08-04T11:55:13.521Z,34.80
2022-08-04T11:57:41.266Z,35.01
2022-08-04T12:00:12.797Z,34.76
2022-08-04T12:02:49.605Z,34.92
2022-08-04T12:05:37.153Z,34.90
2022-08-04T12:08:08.291Z,34.99
2022-08-04T12:11:13.563Z,34.87
2022-08-04T12:14:00.765Z,34.72
2022-08-04T12:16:42.156Z,34.97
2022-08-04T12:19:22.341Z,34.92
2022-08-04T12:21:55.949Z,35.22
2022-08-04T12:24:30.912Z,34.92
2022-08-04T12:27:04.859Z,35.02
2022-08-04T12:29:34.773Z,35.16
2022-08-04T12:32:13.420Z,35.27
2022-08-04T12:35:14.998Z,35.00
2022-08-04T12:38:05.100Z,34.82
2022-08-04T12:41:05.233Z,34.84
2022-08-04T12:43:38.989Z,35.03
2022-08-04T12:46:09.167Z,35.04
2022-08-04T12:48:39.408Z,35.13
2022-08-04T12:52:06.237Z,35.12
2022-08-04T12:53:58.039Z,34.86
2022-08-04T12:56:29.733Z,35.13
2022-08-04T12:59:06.762Z,35.05
2022-08-04T13:02:09.815Z,35.21
2022-08-04T13:04:34.797Z,35.31
2022-08-04T13:07:09.922Z,35.12
2022-08-04T13:09:38.131Z,35.14
2022-08-04T13:12:15.339Z,35.27
2022-08-04T13:14:46.080Z,35.23
2022-08-04T13:19:47.447Z,35.06
2022-08-04T13:22:28.297Z,35.04
2022-08-04T13:26:38.828Z,34.80
2022-08-04T13:27:55.385Z,34.80
2022-08-04T13:30:27.386Z,34.96
2022-08-04T13:32:59.381Z,35.19
2022-08-04T13:35:54.643Z,35.22
2022-08-04T13:38:17.959Z,35.10
2022-08-04T13:40:46.017Z,35.30
2022-08-04T13:44:15.640Z,35.20
2022-08-04T13:46:28.104Z,34.99
2022-08-04T13:49:25.978Z,35.02
2022-08-04T13:51:59.099Z,34.92
2022-08-04T13:54:44.429Z,34.81
2022-08-04T13:57:17.514Z,34.79
2022-08-04T13:59:53.101Z,34.90
2022-08-04T14:02:39.059Z,34.76
2022-08-04T14:05:18.326Z,34.64
2022-08-04T14:08:14.515Z,34.50
2022-08-04T14:10:41.871Z,34.67
2022-08-04T14:13:09.479Z,34.64
2022-08-04T14:16:01.073Z,34.79
2022-08-04T14:18:32.777Z,34.85
2022-08-04T14:21:13.620Z,34.93
2022-08-04T14:23:55.127Z,34.95
2022-08-04T14:26:32.424Z,34.96
2022-08-04T14:29:26.789Z,34.59
2022-08-04T14:32:01.996Z,34.44
2022-08-04T14:34:30.864Z,34.33
2022-08-04T14:37:17.039Z,34.27
2022-08-04T14:40:17.368Z,34.13
2022-08-04T14:42:55.619Z,33.85
2022-08-04T14:45:31.756Z,33.90
2022-08-04T14:47:59.409Z,33.94
2022-08-04T14:50:36.929Z,33.92
2022-08-04T14:53:08.539Z,34.19
2022-08-04T14:55:37.263Z,34.28
2022-08-04T14:58:35.798Z,34.37
2022-08-04T15:00:56.085Z,34.37
2022-08-04T15:03:24.536Z,34.27
2022-08-04T15:06:00.792Z,34.25
2022-08-04T15:08:31.921Z,34.09
2022-08-04T15:11:03.220Z,34.11
2022-08-04T15:13:33.556Z,34.08
2022-08-04T15:16:07.819Z,34.17
2022-08-04T15:18:39.406Z,34.04
2022-08-04T15:21:07.984Z,34.00
2022-08-04T15:23:39.747Z,33.94
2022-08-04T15:26:12.937Z,33.84
2022-08-04T15:28:46.139Z,33.90
2022-08-04T15:32:05.381Z,33.88
2022-08-04T15:34:03.040Z,33.72
2022-08-04T15:36:43.411Z,33.69
2022-08-04T15:39:33.720Z,33.62
2022-08-04T15:42:17.536Z,33.64
2022-08-04T15:44:53.912Z,33.60
2022-08-04T15:47:27.331Z,33.59
2022-08-04T15:50:07.620Z,33.59
2022-08-04T15:53:00.989Z,33.55
2022-08-04T15:55:43.954Z,33.46
2022-08-04T15:58:16.921Z,33.33
2022-08-04T16:00:50.018Z,33.28
2022-08-04T16:03:58.180Z,33.20
2022-08-04T16:06:23.097Z,33.06
2022-08-04T16:09:03.080Z,33.05
2022-08-04T16:11:32.211Z,32.89
2022-08-04T16:14:01.981Z,32.83
2022-08-04T16:16:38.510Z,32.74
2022-08-04T16:19:08.299Z,32.77
2022-08-04T16:21:57.188Z,32.64
2022-08-04T16:24:35.209Z,32.63
2022-08-04T16:27:07.518Z,32.63
2022-08-04T16:29:38.407Z,32.53
2022-08-04T16:32:05.626Z,32.35
2022-08-04T16:34:50.316Z,32.36
2022-08-04T16:37:23.562Z,32.30
2022-08-04T16:40:10.385Z,32.26
2022-08-04T16:42:37.562Z,32.18
2022-08-04T16:45:07.487Z,32.21
2022-08-04T16:47:49.838Z,32.14
2022-08-04T16:50:22.061Z,32.06
2022-08-04T16:52:54.708Z,32.05
2022-08-04T16:55:28.025Z,32.05
2022-08-04T16:58:01.120Z,31.99
2022-08-04T17:00:31.736Z,31.93
2022-08-04T17:03:03.107Z,31.88
2022-08-04T17:05:39.774Z,31.88
2022-08-04T17:10:55.717Z,31.78
2022-08-04T17:14:02.055Z,31.74
2022-08-04T17:16:21.104Z,31.70
2022-08-04T17:18:50.351Z,31.58
2022-08-04T17:21:30.003Z,31.60
2022-08-04T17:24:13.410Z,31.59
2022-08-04T17:26:53.709Z,31.55
2022-08-04T17:29:43.248Z,31.51
2022-08-04T17:32:16.866Z,31.45
2022-08-04T17:34:49.597Z,31.37
2022-08-04T17:37:40.523Z,31.38
2022-08-04T17:40:10.373Z,31.35
2022-08-04T17:42:39.994Z,31.29
2022-08-04T17:45:49.372Z,31.17
2022-08-04T17:47:59.703Z,31.08
2022-08-04T17:50:34.787Z,30.99
2022-08-04T17:53:12.170Z,30.92
2022-08-04T17:55:49.502Z,30.81
2022-08-04T17:58:21.936Z,30.70
2022-08-04T18:01:23.823Z,30.57
2022-08-04T18:03:51.599Z,30.48
2022-08-04T18:06:19.828Z,30.42
2022-08-04T18:08:54.874Z,30.34
2022-08-04T18:11:29.778Z,30.24
2022-08-04T18:14:10.229Z,30.19
2022-08-04T18:16:44.877Z,30.13
2022-08-04T18:19:13.626Z,30.07
2022-08-04T18:21:46.758Z,29.99
2022-08-04T18:24:35.170Z,29.88
2022-08-04T18:27:17.911Z,29.81
2022-08-04T18:30:14.609Z,29.71
2022-08-04T18:32:33.415Z,29.60
2022-08-04T18:35:05.151Z,29.52
2022-08-04T18:40:29.937Z,29.33
2022-08-04T18:43:03.616Z,29.19
2022-08-04T18:45:34.620Z,29.08
2022-08-04T18:48:04.309Z,28.98
2022-08-04T18:51:11.323Z,28.86
2022-08-04T18:53:35.102Z,28.73
2022-08-04T18:56:06.366Z,28.71
2022-08-04T18:58:43.035Z,28.68
2022-08-04T19:01:14.198Z,28.64
2022-08-04T19:03:49.439Z,28.59
2022-08-04T19:06:25.800Z,28.57
2022-08-04T19:08:53.143Z,28.50
2022-08-04T19:11:38.046Z,28.39
2022-08-04T19:14:07.640Z,28.32
2022-08-04T19:16:40.862Z,28.21
2022-08-04T19:19:12.792Z,28.18
2022-08-04T19:22:00.726Z,28.13
2022-08-04T19:24:32.460Z,28.08
2022-08-04T19:27:07.049Z,28.08
2022-08-04T19:29:40.808Z,28.06
2022-08-04T19:32:15.001Z,28.05
2022-08-04T19:34:46.309Z,28.02
2022-08-04T19:37:57.410Z,28.01
2022-08-04T19:40:09.620Z,27.99
2022-08-04T19:42:37.876Z,27.97
2022-08-04T19:45:06.848Z,27.88
2022-08-04T19:48:17.145Z,27.84
2022-08-04T19:50:23.637Z,27.82
2022-08-04T19:52:53.994Z,27.79
2022-08-04T19:55:36.884Z,27.77
2022-08-04T19:58:11.863Z,27.73
2022-08-04T20:04:10.041Z,27.73
2022-08-04T20:06:16.554Z,27.70
2022-08-04T20:08:48.252Z,27.62
2022-08-04T20:11:18.542Z,27.43
2022-08-04T20:13:54.248Z,27.35
2022-08-04T20:16:30.085Z,27.25
2022-08-04T20:19:03.124Z,27.20
2022-08-04T20:21:53.780Z,27.15
2022-08-04T20:24:39.068Z,27.07
2022-08-04T20:27:11.517Z,27.00
2022-08-04T20:29:46.072Z,26.91
2022-08-04T20:32:22.271Z,26.88
2022-08-04T20:34:54.512Z,26.78
2022-08-04T20:37:25.748Z,26.75
2022-08-04T20:40:12.661Z,26.73
2022-08-04T20:42:45.009Z,26.67
2022-08-04T20:45:16.274Z,26.63
2022-08-04T20:47:53.363Z,26.57
2022-08-04T20:50:29.925Z,26.52
2022-08-04T20:52:58.353Z,26.50
2022-08-04T20:55:29.818Z,26.47
2022-08-04T20:58:03.155Z,26.46
2022-08-04T21:00:31.887Z,26.43
2022-08-04T21:02:59.952Z,26.40
2022-08-04T21:05:27.557Z,26.40
2022-08-04T21:07:57.087Z,26.37
2022-08-04T21:10:27.877Z,26.31
2022-08-04T21:12:55.455Z,26.28
2022-08-04T21:15:50.717Z,26.26
2022-08-04T21:18:13.946Z,26.24
2022-08-04T21:20:43.171Z,26.22
2022-08-04T21:23:10.515Z,26.21
2022-08-04T21:25:42.582Z,26.21
2022-08-04T21:28:11.220Z,26.18
2022-08-04T21:30:54.344Z,26.15
2022-08-04T21:33:50.059Z,26.07
2022-08-04T21:36:12.482Z,26.07
2022-08-04T21:38:39.581Z,26.02
2022-08-04T21:41:09.418Z,26.01
2022-08-04T21:43:42.624Z,26.00
2022-08-04T21:46:11.500Z,25.97
2022-08-04T21:48:39.347Z,25.92
2022-08-04T21:51:58.973Z,25.93
2022-08-04T21:54:04.168Z,25.95
2022-08-04T21:56:33.660Z,25.89
2022-08-04T21:59:02.617Z,25.84
2022-08-04T22:01:52.332Z,25.86
2022-08-04T22:04:20.209Z,25.82
2022-08-04T22:06:52.575Z,25.79
2022-08-04T22:09:22.370Z,25.76
2022-08-04T22:11:52.024Z,25.78
2022-08-04T22:14:27.361Z,25.68
2022-08-04T22:16:57.758Z,25.66
2022-08-04T22:19:49.792Z,25.64
2022-08-04T22:22:13.507Z,25.59
2022-08-04T22:24:51.890Z,25.53
2022-08-04T22:27:37.421Z,25.52
2022-08-04T22:30:17.300Z,25.49
2022-08-04T22:32:47.099Z,25.41
2022-08-04T22:35:42.938Z,25.40
2022-08-04T22:38:06.086Z,25.41
2022-08-04T22:40:38.487Z,25.33
2022-08-04T22:43:22.599Z,25.32
2022-08-04T22:45:52.596Z,25.29
2022-08-04T22:48:19.707Z,25.25
2022-08-04T22:50:46.778Z,25.21
2022-08-04T22:53:17.968Z,25.20
2022-08-04T22:56:07.339Z,25.19
2022-08-04T22:58:32.615Z,25.19
2022-08-04T23:00:59.878Z,25.11
2022-08-04T23:03:36.836Z,25.06
2022-08-04T23:06:11.768Z,25.04
2022-08-04T23:08:43.034Z,25.08
2022-08-04T23:11:13.963Z,25.08
2022-08-04T23:13:42.022Z,25.05
2022-08-04T23:16:10.371Z,25.04
2022-08-04T23:18:40.049Z,25.05
2022-08-04T23:21:09.817Z,25.09
2022-08-04T23:23:38.151Z,25.07
2022-08-04T23:26:14.356Z,25.02
2022-08-04T23:28:42.470Z,25.04
2022-08-04T23:31:10.039Z,24.99
2022-08-04T23:33:49.271Z,24.93
2022-08-04T23:36:29.681Z,24.92
2022-08-04T23:39:04.055Z,24.89
2022-08-04T23:41:53.479Z,24.83
2022-08-04T23:44:25.417Z,24.83
2022-08-04T23:47:04.490Z,24.80
2022-08-04T23:49:43.725Z,24.81
2022-08-04T23:52:15.750Z,24.78
2022-08-04T23:54:54.622Z,24.83
2022-08-04T23:57:22.304Z,24.77
2022-08-04T23:59:54.258Z,24.73
